createdAt,value
2023-02-28T00:01:28.975Z,32.90
2023-02-28T00:06:32.817Z,31.70
2023-02-28T00:11:36.536Z,35.00
2023-02-28T00:16:39.984Z,21.80
2023-02-28T00:21:44.184Z,28.00
2023-02-28T00:26:47.801Z,24.00
2023-02-28T00:31:51.273Z,26.10
2023-02-28T00:36:54.964Z,24.10
2023-02-28T00:41:58.553Z,24.90
2023-02-28T00:47:02.170Z,21.20
2023-02-28T00:52:06.706Z,23.60
2023-02-28T00:57:10.226Z,17.50
2023-02-28T01:02:13.841Z,15.20
2023-02-28T01:07:17.461Z,14.90
2023-02-28T01:12:21.290Z,15.20
2023-02-28T01:17:24.903Z,15.50
2023-02-28T01:22:28.929Z,15.20
2023-02-28T01:27:32.616Z,14.80
2023-02-28T01:32:37.395Z,15.90
2023-02-28T01:37:40.907Z,14.00
2023-02-28T01:42:44.524Z,25.70
2023-02-28T01:47:52.546Z,14.90
2023-02-28T01:53:01.694Z,11.60
2023-02-28T01:58:08.101Z,15.50
2023-02-28T02:03:20.190Z,19.60
2023-02-28T02:08:30.343Z,27.80
2023-02-28T02:14:01.422Z,22.30
2023-02-28T02:19:25.722Z,26.20
2023-02-28T02:24:58.838Z,23.90
2023-02-28T02:30:18.737Z,22.60
2023-02-28T02:35:36.914Z,25.70
2023-02-28T02:40:52.081Z,31.10
2023-02-28T02:46:00.514Z,26.90
2023-02-28T02:51:13.177Z,22.60
2023-02-28T02:56:20.901Z,22.30
2023-02-28T03:01:30.528Z,17.30
2023-02-28T03:06:34.746Z,14.70
2023-02-28T03:11:40.206Z,16.80
2023-02-28T03:17:11.171Z,15.00
2023-02-28T03:22:33.425Z,15.80
2023-02-28T03:28:05.714Z,16.90
2023-02-28T03:33:14.455Z,15.60
2023-02-28T03:38:21.144Z,17.10
2023-02-28T03:43:31.115Z,21.50
2023-02-28T03:48:39.142Z,19.20
2023-02-28T03:53:55.966Z,19.50
2023-02-28T03:59:36.237Z,19.60
2023-02-28T04:04:39.963Z,18.60
2023-02-28T04:09:44.294Z,21.40
2023-02-28T04:14:47.707Z,20.00
2023-02-28T04:19:51.321Z,20.30
2023-02-28T04:24:55.673Z,22.20
2023-02-28T04:29:59.179Z,18.70
2023-02-28T04:35:03.918Z,18.40
2023-02-28T04:40:08.500Z,16.40
2023-02-28T04:45:12.524Z,15.30
2023-02-28T04:50:16.311Z,14.90
2023-02-28T04:55:19.719Z,12.30
2023-02-28T05:00:23.134Z,10.50
2023-02-28T05:05:26.683Z,9.30
2023-02-28T05:10:31.088Z,7.70
2023-02-28T05:15:35.725Z,7.90
2023-02-28T05:20:39.412Z,7.90
2023-02-28T05:25:43.169Z,7.50
2023-02-28T05:30:46.881Z,9.10
2023-02-28T05:35:50.555Z,7.40
2023-02-28T05:40:54.654Z,7.80
2023-02-28T05:45:58.186Z,13.30
2023-02-28T05:51:02.384Z,18.40
2023-02-28T05:56:06.125Z,54.20
2023-02-28T06:01:34.000Z,27.60
2023-02-28T06:06:38.257Z,12.50
2023-02-28T06:11:42.020Z,12.70
2023-02-28T06:16:45.812Z,12.40
2023-02-28T06:21:53.707Z,12.90
2023-02-28T06:26:58.862Z,15.40
2023-02-28T06:32:02.902Z,19.80
2023-02-28T06:37:06.483Z,18.10
2023-02-28T06:42:10.208Z,21.20
2023-02-28T06:47:13.620Z,19.30
2023-02-28T06:52:17.748Z,17.70
2023-02-28T06:57:21.161Z,16.90
2023-02-28T07:02:24.576Z,29.90
2023-02-28T07:07:29.182Z,39.00
2023-02-28T07:17:35.934Z,13.50
2023-02-28T07:22:40.065Z,13.30
2023-02-28T07:27:43.989Z,13.00
2023-02-28T07:32:47.606Z,12.10
2023-02-28T07:37:51.020Z,11.40
2023-02-28T07:42:54.538Z,11.30
2023-02-28T07:47:58.051Z,12.80
2023-02-28T07:53:02.536Z,11.80
2023-02-28T07:58:06.011Z,14.70
2023-02-28T08:03:14.340Z,13.20
2023-02-28T08:08:18.168Z,12.10
2023-02-28T08:13:21.678Z,12.30
2023-02-28T08:18:25.516Z,10.60
2023-02-28T08:23:29.117Z,11.60
2023-02-28T08:28:33.162Z,11.30
2023-02-28T08:33:36.871Z,6.30
2023-02-28T08:38:40.795Z,5.80
2023-02-28T08:43:44.791Z,5.50
2023-02-28T08:48:48.342Z,6.20
2023-02-28T08:53:51.845Z,5.00
2023-02-28T08:58:57.554Z,7.50
2023-02-28T09:04:01.141Z,7.20
2023-02-28T09:09:07.715Z,7.30
2023-02-28T09:14:11.331Z,5.90
2023-02-28T09:19:15.270Z,5.90
2023-02-28T09:24:19.488Z,3.90
2023-02-28T09:29:23.016Z,4.30
2023-02-28T09:34:28.523Z,3.30
2023-02-28T09:39:33.008Z,3.60
2023-02-28T09:44:45.824Z,2.90
2023-02-28T09:49:50.277Z,2.20
2023-02-28T09:54:53.894Z,2.80
2023-02-28T10:00:18.264Z,2.50
2023-02-28T10:05:34.527Z,1.90
2023-02-28T10:10:46.827Z,2.00
2023-02-28T10:15:56.419Z,1.70
2023-02-28T10:21:02.011Z,1.70
2023-02-28T10:26:17.490Z,1.50
2023-02-28T10:31:22.266Z,1.60
2023-02-28T10:36:26.154Z,2.00
2023-02-28T10:41:35.957Z,1.90
2023-02-28T10:46:41.773Z,2.00
2023-02-28T10:51:46.075Z,2.90
2023-02-28T11:02:37.165Z,2.70
2023-02-28T11:07:52.886Z,2.30
2023-02-28T11:13:00.779Z,2.90
2023-02-28T11:18:24.674Z,2.20
2023-02-28T11:23:32.067Z,2.80
2023-02-28T11:28:38.265Z,3.40
2023-02-28T11:33:52.610Z,6.10
2023-02-28T11:39:02.889Z,3.60
2023-02-28T11:44:34.053Z,4.90
2023-02-28T11:50:05.220Z,4.40
2023-02-28T11:55:20.817Z,4.70
2023-02-28T12:00:42.156Z,3.70
2023-02-28T12:05:51.099Z,6.40
2023-02-28T12:11:22.367Z,8.60
2023-02-28T12:16:55.680Z,5.50
2023-02-28T12:22:05.131Z,5.60
2023-02-28T12:27:13.984Z,5.00
2023-02-28T12:32:36.020Z,8.50
2023-02-28T12:37:48.243Z,4.50
2023-02-28T12:43:00.257Z,6.10
2023-02-28T12:48:07.265Z,5.60
2023-02-28T12:53:33.624Z,7.00
2023-02-28T12:58:55.962Z,7.40
2023-02-28T13:04:40.028Z,8.60
2023-02-28T13:09:54.933Z,4.60
2023-02-28T13:15:26.241Z,4.90
2023-02-28T13:20:37.672Z,3.60
2023-02-28T13:25:40.992Z,10.00
2023-02-28T13:30:54.298Z,4.20
2023-02-28T13:36:27.142Z,6.40
2023-02-28T13:41:31.043Z,7.30
2023-02-28T13:46:50.050Z,5.10
2023-02-28T13:51:54.802Z,7.60
2023-02-28T13:57:07.932Z,5.40
2023-02-28T14:02:23.217Z,3.80
2023-02-28T14:07:36.433Z,5.10
2023-02-28T14:12:56.360Z,9.10
2023-02-28T14:18:02.943Z,10.50
2023-02-28T14:23:15.496Z,10.70
2023-02-28T14:28:48.072Z,3.50
2023-02-28T14:34:25.893Z,3.20
2023-02-28T14:39:34.736Z,2.70
2023-02-28T14:44:38.247Z,2.60
2023-02-28T14:49:47.937Z,3.30
2023-02-28T14:55:01.663Z,2.30
2023-02-28T15:00:27.185Z,2.70
2023-02-28T15:05:33.984Z,2.30
2023-02-28T15:10:37.919Z,2.40
2023-02-28T15:15:51.600Z,2.60
2023-02-28T15:21:12.587Z,3.10
2023-02-28T15:26:23.767Z,2.90
2023-02-28T15:31:56.414Z,3.20
2023-02-28T15:37:00.304Z,3.00
2023-02-28T15:42:18.867Z,3.20
2023-02-28T15:47:25.055Z,3.50
2023-02-28T15:52:39.828Z,3.10
2023-02-28T15:57:43.855Z,3.10
2023-02-28T16:02:47.962Z,3.70
2023-02-28T16:07:51.506Z,7.60
2023-02-28T16:12:56.926Z,22.30
2023-02-28T16:18:02.116Z,30.40
2023-02-28T16:23:05.735Z,44.20
2023-02-28T16:28:20.827Z,61.80
2023-02-28T16:33:24.551Z,43.90
2023-02-28T16:38:28.162Z,17.60
2023-02-28T16:43:31.882Z,17.70
2023-02-28T16:48:35.419Z,18.20
2023-02-28T16:53:38.843Z,33.90
2023-02-28T16:58:42.326Z,44.00
2023-02-28T17:03:45.895Z,17.40
2023-02-28T17:08:52.948Z,9.20
2023-02-28T17:13:56.660Z,22.10
2023-02-28T17:19:04.271Z,30.20
2023-02-28T17:24:08.149Z,26.90
2023-02-28T17:29:20.745Z,21.40
2023-02-28T17:34:25.521Z,21.60
2023-02-28T17:39:29.153Z,18.20
2023-02-28T17:44:32.718Z,12.00
2023-02-28T17:49:36.327Z,11.40
2023-02-28T17:54:40.045Z,12.40
2023-02-28T17:59:44.384Z,18.20
2023-02-28T18:04:47.813Z,59.50
2023-02-28T18:09:51.415Z,70.90
2023-02-28T18:14:55.256Z,76.80
2023-02-28T18:19:59.883Z,77.90
2023-02-28T18:25:09.383Z,75.90
2023-02-28T18:30:13.486Z,77.40
2023-02-28T18:35:18.025Z,61.20
2023-02-28T18:40:21.939Z,51.70
2023-02-28T18:45:26.052Z,37.70
2023-02-28T18:50:29.914Z,59.60
2023-02-28T18:55:34.414Z,44.50
2023-02-28T19:00:38.426Z,31.60
2023-02-28T19:05:42.160Z,23.10
2023-02-28T19:10:45.778Z,15.90
2023-02-28T19:15:49.290Z,12.90
2023-02-28T19:20:52.912Z,12.70
2023-02-28T19:25:56.934Z,10.80
2023-02-28T19:31:08.133Z,12.00
2023-02-28T19:36:12.886Z,12.60
2023-02-28T19:41:17.736Z,13.10
2023-02-28T19:46:21.140Z,11.60
2023-02-28T19:51:24.859Z,10.80
2023-02-28T19:56:28.674Z,10.30
2023-02-28T20:01:32.407Z,9.40
2023-02-28T20:06:36.531Z,10.20
2023-02-28T20:11:41.486Z,11.20
2023-02-28T20:16:46.281Z,12.00
2023-02-28T20:21:49.742Z,13.70
2023-02-28T20:26:54.081Z,15.00
2023-02-28T20:31:58.157Z,16.00
2023-02-28T20:37:01.622Z,13.50
2023-02-28T20:42:05.549Z,11.50
2023-02-28T20:47:08.957Z,11.20
2023-02-28T20:52:13.109Z,13.50
2023-02-28T20:57:16.505Z,13.00
2023-02-28T21:02:21.587Z,14.20
2023-02-28T21:07:28.865Z,12.00
2023-02-28T21:12:41.943Z,14.10
2023-02-28T21:17:48.389Z,13.00
2023-02-28T21:22:53.202Z,14.80
2023-02-28T21:27:57.801Z,14.70
2023-02-28T21:33:03.542Z,16.60
2023-02-28T21:38:07.065Z,14.60
2023-02-28T21:43:10.672Z,14.90
2023-02-28T21:48:14.216Z,12.30
2023-02-28T21:53:17.806Z,11.40
2023-02-28T21:58:21.631Z,13.10
2023-02-28T22:03:25.245Z,11.40
2023-02-28T22:08:28.760Z,12.00
2023-02-28T22:13:32.992Z,13.10
2023-02-28T22:18:37.238Z,12.70
2023-02-28T22:23:42.189Z,16.90
2023-02-28T22:28:45.690Z,14.00
2023-02-28T22:33:51.100Z,13.70
2023-02-28T22:38:55.176Z,12.50
2023-02-28T22:44:01.173Z,10.60
2023-02-28T22:49:06.020Z,9.80
2023-02-28T22:54:09.924Z,8.50
2023-02-28T22:59:15.114Z,8.00
2023-02-28T23:04:19.826Z,8.30
2023-02-28T23:09:23.541Z,8.60
2023-02-28T23:14:26.947Z,9.60
2023-02-28T23:19:32.717Z,8.90
2023-02-28T23:24:37.562Z,8.40
2023-02-28T23:29:41.079Z,8.70
2023-02-28T23:34:45.007Z,8.90
2023-02-28T23:39:48.619Z,10.80
2023-02-28T23:44:52.042Z,10.80
2023-02-28T23:49:55.546Z,10.10
2023-02-28T23:55:01.111Z,10.00
